Helen Merril — WDF2994 — position and weather

sailwx.info

Track history (hours):
 
Tides and Currents Weather Stations Pressure Air Temp Water Temp Dewpoint Dewpoint Depression Visibility Wind Speed Wind Dir Waves Ship Positions

Helen Merril

Owner: SCF Waxler Marine LLC, St. Rose, LA. More information available from US FCC via Universal Licensing System and Coast Guard Vessel Documentation Center.

Last reported at 2016-Jul-23 10:31 UTC. Time now 2016-Jul-23 23:12 UTC.
Position N 29°58' W 093°51'.

Length 33 m; draft 6.1 m.

Type: Ship (hazmat cat A). MMSI: 367434260.

Date/timePositionNaut miles runAvg speedWind from/ knotsBaromVisibWave heightAir tempDewpointWater temp
2016-Jul-23 10:31N 29°58' W 093°51'0 0.0
2016-Jul-23 09:32N 29°58' W 093°51'0 0.0
2016-Jul-23 08:29N 29°58' W 093°51'0 0.0
2016-Jul-23 06:25N 29°58' W 093°51'1 0.8
2016-Jul-23 04:33N 29°59' W 093°49'6 5.8
2016-Jul-23 03:33N 30°03' W 093°44'2 2.4
2016-Jul-23 02:34N 30°05' W 093°44'0 0.0
2016-Jul-23 01:34N 30°05' W 093°44'0 0.3
2016-Jul-23 00:34N 30°05' W 093°43'1 1.3
2016-Jul-22 23:32N 30°04' W 093°43'5 4.7
2016-Jul-22 22:33N 30°00' W 093°46'4 0.5
2016-Jul-22 13:23N 29°58' W 093°51'0 0.0
2016-Jul-22 04:24N 29°58' W 093°51'1 1.2
2016-Jul-22 03:33N 29°59' W 093°50'6 5.8
2016-Jul-22 02:33N 30°02' W 093°44'5 4.8
2016-Jul-22 01:34N 30°04' W 093°39'5 4.9
2016-Jul-22 00:34N 30°04' W 093°33'5 5.0
2016-Jul-21 23:33N 30°04' W 093°28'5 4.7
2016-Jul-21 22:33N 30°04' W 093°22'3 2.6
2016-Jul-21 21:34N 30°05' W 093°20'3 3.5
2016-Jul-21 20:33N 30°09' W 093°20'2 2.2
2016-Jul-21 19:33N 30°11' W 093°19'0 0.0
2016-Jul-21 18:34N 30°11' W 093°19'0 0.0
2016-Jul-21 17:33N 30°11' W 093°19'0 0.0
2016-Jul-21 16:33N 30°11' W 093°19'0 0.0
2016-Jul-21 15:34N 30°11' W 093°19'0 0.0
2016-Jul-21 14:34N 30°11' W 093°19'0 0.0
2016-Jul-21 13:34N 30°11' W 093°19'0 0.0
2016-Jul-21 12:33N 30°11' W 093°19'0 0.0
2016-Jul-21 11:33N 30°11' W 093°19'0 0.0
2016-Jul-21 10:34N 30°11' W 093°19'0 0.0
2016-Jul-21 09:33N 30°11' W 093°19'0 0.0
2016-Jul-21 08:33N 30°11' W 093°19'0 0.0
2016-Jul-21 07:33N 30°11' W 093°19'0 0.0
2016-Jul-21 06:34N 30°11' W 093°19'0 0.0
2016-Jul-21 05:33N 30°11' W 093°19'0 0.0
2016-Jul-21 04:33N 30°11' W 093°19'0 0.0
2016-Jul-21 03:33N 30°11' W 093°19'4 4.5
2016-Jul-21 02:33N 30°06' W 093°20'0 0.3
2016-Jul-21 01:33N 30°06' W 093°20'4 3.8
2016-Jul-21 00:34N 30°04' W 093°23'5 5.2
2016-Jul-20 23:34N 30°04' W 093°29'6 5.7
2016-Jul-20 22:34N 30°04' W 093°36'6 6.3
2016-Jul-20 21:33N 30°03' W 093°43'44 5.4
2016-Jul-20 13:30N 29°36' W 094°22'26 4.1
2016-Jul-20 07:05N 29°26' W 094°50'4 7.5
2016-Jul-20 06:33N 29°30' W 094°52'7 7.5
2016-Jul-20 05:33N 29°36' W 094°57'7 7.3
2016-Jul-20 04:33N 29°43' W 095°01'6 5.3
2016-Jul-20 03:28N 29°44' W 095°08'5 5.3
2016-Jul-20 02:32N 29°44' W 095°13'1 0.1
2016-Jul-19 15:27N 29°43' W 095°15'0 0.0
2016-Jul-19 14:31N 29°43' W 095°15'0 0.0
2016-Jul-19 13:32N 29°43' W 095°15'0 0.0
2016-Jul-19 12:18N 29°43' W 095°15'0 0.1
2016-Jul-19 07:23N 29°44' W 095°15'14 4.9
2016-Jul-19 04:33N 29°42' W 094°59'8 8.0
2016-Jul-19 03:34N 29°34' W 094°56'  
2016-Jul-16 12:22N 29°25' W 094°43'0 0.0
2016-Jul-16 09:11N 29°25' W 094°43'0 0.0
2016-Jul-16 08:29N 29°25' W 094°43'0 0.0
2016-Jul-16 07:15N 29°25' W 094°43'0 0.0
2016-Jul-16 04:10N 29°25' W 094°43'0 0.0
2016-Jul-16 02:25N 29°25' W 094°43'0 0.0
2016-Jul-16 00:33N 29°25' W 094°43'0 0.0
2016-Jul-15 23:33N 29°25' W 094°43'0 0.0
2016-Jul-14 21:13N 29°26' W 094°43'1 0.0
2016-Jul-14 08:10N 29°25' W 094°43'0 0.0
2016-Jul-14 07:33N 29°25' W 094°43'0 0.0
2016-Jul-14 06:24N 29°25' W 094°43'0 0.1
2016-Jul-14 03:33N 29°25' W 094°43'43 3.0
2016-Jul-13 13:27N 29°47' W 094°01'5 6.0
2016-Jul-13 12:32N 29°51' W 093°57'8 7.9
2016-Jul-13 11:33N 29°58' W 093°51'6 6.5
2016-Jul-13 10:33N 30°01' W 093°45'  
Track history (hours):
 
Tides and Currents Weather Stations Pressure Air Temp Water Temp Dewpoint Dewpoint Depression Visibility Wind Speed Wind Dir Waves Ship Positions

Helen Merril

Owner: SCF Waxler Marine LLC, St. Rose, LA. More information available from US FCC via Universal Licensing System and Coast Guard Vessel Documentation Center.

Last reported at 2016-Jul-23 10:31 UTC. Time now 2016-Jul-23 23:12 UTC.
Position N 29°58' W 093°51'.

Length 33 m; draft 6.1 m.

Type: Ship (hazmat cat A). MMSI: 367434260.

Date/timePositionNaut miles runAvg speedWind from/ knotsBaromVisibWave heightAir tempDewpointWater temp
2016-Jul-23 10:31N 29°58' W 093°51'0 0.0
2016-Jul-23 09:32N 29°58' W 093°51'0 0.0
2016-Jul-23 08:29N 29°58' W 093°51'0 0.0
2016-Jul-23 06:25N 29°58' W 093°51'1 0.8
2016-Jul-23 04:33N 29°59' W 093°49'6 5.8
2016-Jul-23 03:33N 30°03' W 093°44'2 2.4
2016-Jul-23 02:34N 30°05' W 093°44'0 0.0
2016-Jul-23 01:34N 30°05' W 093°44'0 0.3
2016-Jul-23 00:34N 30°05' W 093°43'1 1.3
2016-Jul-22 23:32N 30°04' W 093°43'5 4.7
2016-Jul-22 22:33N 30°00' W 093°46'4 0.5
2016-Jul-22 13:23N 29°58' W 093°51'0 0.0
2016-Jul-22 04:24N 29°58' W 093°51'1 1.2
2016-Jul-22 03:33N 29°59' W 093°50'6 5.8
2016-Jul-22 02:33N 30°02' W 093°44'5 4.8
2016-Jul-22 01:34N 30°04' W 093°39'5 4.9
2016-Jul-22 00:34N 30°04' W 093°33'5 5.0
2016-Jul-21 23:33N 30°04' W 093°28'5 4.7
2016-Jul-21 22:33N 30°04' W 093°22'3 2.6
2016-Jul-21 21:34N 30°05' W 093°20'3 3.5
2016-Jul-21 20:33N 30°09' W 093°20'2 2.2
2016-Jul-21 19:33N 30°11' W 093°19'0 0.0
2016-Jul-21 18:34N 30°11' W 093°19'0 0.0
2016-Jul-21 17:33N 30°11' W 093°19'0 0.0
2016-Jul-21 16:33N 30°11' W 093°19'0 0.0
2016-Jul-21 15:34N 30°11' W 093°19'0 0.0
2016-Jul-21 14:34N 30°11' W 093°19'0 0.0
2016-Jul-21 13:34N 30°11' W 093°19'0 0.0
2016-Jul-21 12:33N 30°11' W 093°19'0 0.0
2016-Jul-21 11:33N 30°11' W 093°19'0 0.0
2016-Jul-21 10:34N 30°11' W 093°19'0 0.0
2016-Jul-21 09:33N 30°11' W 093°19'0 0.0
2016-Jul-21 08:33N 30°11' W 093°19'0 0.0
2016-Jul-21 07:33N 30°11' W 093°19'0 0.0
2016-Jul-21 06:34N 30°11' W 093°19'0 0.0
2016-Jul-21 05:33N 30°11' W 093°19'0 0.0
2016-Jul-21 04:33N 30°11' W 093°19'0 0.0
2016-Jul-21 03:33N 30°11' W 093°19'4 4.5
2016-Jul-21 02:33N 30°06' W 093°20'0 0.3
2016-Jul-21 01:33N 30°06' W 093°20'4 3.8
2016-Jul-21 00:34N 30°04' W 093°23'5 5.2
2016-Jul-20 23:34N 30°04' W 093°29'6 5.7
2016-Jul-20 22:34N 30°04' W 093°36'6 6.3
2016-Jul-20 21:33N 30°03' W 093°43'44 5.4
2016-Jul-20 13:30N 29°36' W 094°22'26 4.1
2016-Jul-20 07:05N 29°26' W 094°50'4 7.5
2016-Jul-20 06:33N 29°30' W 094°52'7 7.5
2016-Jul-20 05:33N 29°36' W 094°57'7 7.3
2016-Jul-20 04:33N 29°43' W 095°01'6 5.3
2016-Jul-20 03:28N 29°44' W 095°08'5 5.3
2016-Jul-20 02:32N 29°44' W 095°13'1 0.1
2016-Jul-19 15:27N 29°43' W 095°15'0 0.0
2016-Jul-19 14:31N 29°43' W 095°15'0 0.0
2016-Jul-19 13:32N 29°43' W 095°15'0 0.0
2016-Jul-19 12:18N 29°43' W 095°15'0 0.1
2016-Jul-19 07:23N 29°44' W 095°15'14 4.9
2016-Jul-19 04:33N 29°42' W 094°59'8 8.0
2016-Jul-19 03:34N 29°34' W 094°56'  
2016-Jul-16 12:22N 29°25' W 094°43'0 0.0
2016-Jul-16 09:11N 29°25' W 094°43'0 0.0
2016-Jul-16 08:29N 29°25' W 094°43'0 0.0
2016-Jul-16 07:15N 29°25' W 094°43'0 0.0
2016-Jul-16 04:10N 29°25' W 094°43'0 0.0
2016-Jul-16 02:25N 29°25' W 094°43'0 0.0
2016-Jul-16 00:33N 29°25' W 094°43'0 0.0
2016-Jul-15 23:33N 29°25' W 094°43'0 0.0
2016-Jul-14 21:13N 29°26' W 094°43'1 0.0
2016-Jul-14 08:10N 29°25' W 094°43'0 0.0
2016-Jul-14 07:33N 29°25' W 094°43'0 0.0
2016-Jul-14 06:24N 29°25' W 094°43'0 0.1
2016-Jul-14 03:33N 29°25' W 094°43'43 3.0
2016-Jul-13 13:27N 29°47' W 094°01'5 6.0
2016-Jul-13 12:32N 29°51' W 093°57'8 7.9
2016-Jul-13 11:33N 29°58' W 093°51'6 6.5
2016-Jul-13 10:33N 30°01' W 093°45'  

Dump ship's entire track history